createdAt,value
2022-09-17T00:01:57.472Z,90.24
2022-09-17T00:04:25.000Z,90.73
2022-09-17T00:06:52.003Z,89.23
2022-09-17T00:09:21.422Z,89.71
2022-09-17T00:11:48.377Z,89.28
2022-09-17T00:14:17.880Z,90.23
2022-09-17T00:16:49.306Z,90.38
2022-09-17T00:19:22.994Z,89.44
2022-09-17T00:21:56.191Z,90.27
2022-09-17T00:24:23.183Z,90.53
2022-09-17T00:26:50.668Z,90.29
2022-09-17T00:29:17.913Z,90.04
2022-09-17T00:31:45.005Z,88.90
2022-09-17T00:34:12.204Z,88.89
2022-09-17T00:36:41.109Z,89.65
2022-09-17T00:39:12.181Z,88.52
2022-09-17T00:41:39.754Z,88.92
2022-09-17T00:45:00.035Z,90.33
2022-09-17T00:47:46.018Z,89.61
2022-09-17T00:50:39.523Z,90.60
2022-09-17T00:53:16.491Z,90.50
2022-09-17T00:56:26.137Z,89.79
2022-09-17T00:58:56.403Z,90.19
2022-09-17T01:01:23.918Z,89.61
2022-09-17T01:03:51.030Z,89.27
2022-09-17T01:06:55.770Z,89.06
2022-09-17T01:10:21.456Z,89.06
2022-09-17T01:13:31.757Z,88.80
2022-09-17T01:16:28.856Z,90.74
2022-09-17T01:19:43.960Z,90.27
2022-09-17T01:22:34.363Z,88.72
2022-09-17T01:25:28.593Z,88.65
2022-09-17T01:28:33.545Z,88.85
2022-09-17T01:31:49.096Z,88.25
2022-09-17T01:34:59.036Z,89.77
2022-09-17T01:38:01.486Z,89.02
2022-09-17T01:40:56.820Z,89.23
2022-09-17T01:43:46.571Z,89.37
2022-09-17T01:46:24.902Z,90.10
2022-09-17T01:49:05.200Z,90.02
2022-09-17T01:51:49.246Z,90.75
2022-09-17T01:54:35.574Z,89.51
2022-09-17T01:57:33.711Z,89.65
2022-09-17T02:00:19.260Z,89.17
2022-09-17T02:03:13.366Z,89.11
2022-09-17T02:06:03.144Z,88.86
2022-09-17T02:09:21.197Z,89.15
2022-09-17T02:11:56.641Z,89.29
2022-09-17T02:14:47.404Z,88.99
2022-09-17T02:17:30.375Z,89.31
2022-09-17T02:19:57.851Z,89.29
2022-09-17T02:22:42.319Z,89.86
2022-09-17T02:25:39.119Z,89.17
2022-09-17T02:28:59.718Z,90.08
2022-09-17T02:31:27.097Z,89.92
2022-09-17T02:34:02.181Z,89.30
2022-09-17T02:36:32.138Z,90.19
2022-09-17T02:39:02.691Z,89.79
2022-09-17T02:41:51.764Z,89.19
2022-09-17T02:44:53.144Z,90.20
2022-09-17T02:48:12.348Z,89.51
2022-09-17T02:51:35.245Z,90.90
2022-09-17T02:54:39.732Z,90.44
2022-09-17T02:57:41.582Z,90.85
2022-09-17T03:00:22.337Z,90.49
2022-09-17T03:03:05.869Z,91.02
2022-09-17T03:05:38.816Z,90.40
2022-09-17T03:08:12.462Z,91.12
2022-09-17T03:10:40.141Z,90.39
2022-09-17T03:13:07.291Z,90.06
2022-09-17T03:15:34.223Z,89.53
2022-09-17T03:18:01.795Z,90.05
2022-09-17T03:20:28.758Z,90.00
2022-09-17T03:22:55.875Z,91.20
2022-09-17T03:25:22.875Z,91.75
2022-09-17T03:27:50.016Z,91.85
2022-09-17T03:30:17.046Z,91.35
2022-09-17T03:32:44.037Z,91.36
2022-09-17T03:35:11.028Z,91.47
2022-09-17T03:37:38.079Z,90.47
2022-09-17T03:40:06.527Z,91.40
2022-09-17T03:42:33.534Z,92.87
2022-09-17T03:45:00.495Z,91.97
2022-09-17T03:47:27.438Z,92.55
2022-09-17T03:49:54.412Z,91.33
2022-09-17T03:52:21.388Z,91.57
2022-09-17T03:54:51.070Z,92.59
2022-09-17T03:57:18.013Z,91.92
2022-09-17T03:59:45.119Z,91.31
2022-09-17T04:02:12.163Z,91.30
2022-09-17T04:04:44.133Z,91.60
2022-09-17T04:07:11.157Z,90.31
2022-09-17T04:09:38.604Z,91.16
2022-09-17T04:12:05.694Z,90.24
2022-09-17T04:14:46.551Z,90.12
2022-09-17T04:17:18.359Z,91.91
2022-09-17T04:19:48.822Z,92.36
2022-09-17T04:22:15.780Z,91.77
2022-09-17T04:24:43.533Z,90.22
2022-09-17T04:27:10.576Z,90.76
2022-09-17T04:29:41.155Z,90.60
2022-09-17T04:32:19.251Z,91.36
2022-09-17T04:34:46.921Z,90.26
2022-09-17T04:37:13.919Z,89.43
2022-09-17T04:39:40.964Z,90.26
2022-09-17T04:42:07.959Z,90.02
2022-09-17T04:44:34.925Z,89.81
2022-09-17T04:47:05.547Z,89.21
2022-09-17T04:49:32.946Z,88.47
2022-09-17T04:51:59.932Z,89.97
2022-09-17T04:54:26.904Z,89.56
2022-09-17T04:56:54.031Z,88.81
2022-09-17T04:59:21.362Z,90.00
2022-09-17T05:01:52.324Z,89.62
2022-09-17T05:04:19.329Z,89.38
2022-09-17T05:06:46.372Z,89.82
2022-09-17T05:09:14.964Z,88.43
2022-09-17T05:11:42.272Z,87.98
2022-09-17T05:14:09.304Z,89.48
2022-09-17T05:16:36.351Z,89.56
2022-09-17T05:19:04.237Z,88.73
2022-09-17T05:21:31.299Z,88.37
2022-09-17T05:23:58.428Z,89.04
2022-09-17T05:26:49.434Z,89.88
2022-09-17T05:29:16.409Z,89.70
2022-09-17T05:31:43.743Z,89.29
2022-09-17T05:34:10.817Z,89.59
2022-09-17T05:36:38.118Z,89.52
2022-09-17T05:39:05.105Z,89.73
2022-09-17T05:41:32.110Z,88.56
2022-09-17T05:43:59.108Z,89.49
2022-09-17T05:46:26.189Z,88.05
2022-09-17T05:48:57.491Z,87.57
2022-09-17T05:51:24.948Z,87.96
2022-09-17T05:53:54.423Z,87.77
2022-09-17T05:56:21.941Z,87.46
2022-09-17T05:58:49.188Z,89.13
2022-09-17T06:01:16.412Z,87.97
2022-09-17T06:03:43.396Z,87.17
2022-09-17T06:06:10.991Z,86.98
2022-09-17T06:08:38.084Z,86.54
2022-09-17T06:11:09.379Z,87.33
2022-09-17T06:13:36.614Z,87.17
2022-09-17T06:16:04.663Z,88.84
2022-09-17T06:18:32.360Z,88.62
2022-09-17T06:21:03.030Z,87.46
2022-09-17T06:23:37.319Z,88.18
2022-09-17T06:26:08.837Z,88.23
2022-09-17T06:28:48.782Z,86.74
2022-09-17T06:31:16.230Z,86.84
2022-09-17T06:33:43.254Z,86.79
2022-09-17T06:36:14.593Z,87.31
2022-09-17T06:38:42.529Z,88.15
2022-09-17T06:41:09.804Z,88.19
2022-09-17T06:43:36.879Z,88.35
2022-09-17T06:46:06.571Z,88.26
2022-09-17T06:48:36.400Z,87.26
2022-09-17T06:51:10.906Z,87.15
2022-09-17T06:53:39.608Z,87.02
2022-09-17T06:56:08.869Z,84.29
2022-09-17T06:58:37.440Z,85.28
2022-09-17T07:01:29.835Z,86.70
2022-09-17T07:03:57.274Z,86.14
2022-09-17T07:06:25.031Z,87.16
2022-09-17T07:08:55.265Z,86.66
2022-09-17T07:11:25.335Z,86.68
2022-09-17T07:13:56.284Z,86.56
2022-09-17T07:16:24.142Z,85.36
2022-09-17T07:18:51.257Z,85.80
2022-09-17T07:21:18.703Z,85.13
2022-09-17T07:23:46.562Z,85.04
2022-09-17T07:26:18.622Z,84.16
2022-09-17T07:28:46.042Z,86.91
2022-09-17T07:31:16.718Z,85.23
2022-09-17T07:33:45.430Z,85.42
2022-09-17T07:36:17.791Z,86.00
2022-09-17T07:38:45.070Z,84.81
2022-09-17T07:41:17.767Z,84.61
2022-09-17T07:43:45.661Z,85.16
2022-09-17T07:46:23.503Z,84.19
2022-09-17T07:48:51.768Z,85.15
2022-09-17T07:51:23.377Z,83.96
2022-09-17T07:53:57.941Z,85.00
2022-09-17T07:56:27.938Z,84.02
2022-09-17T07:58:55.652Z,83.43
2022-09-17T08:01:22.861Z,82.63
2022-09-17T08:03:53.831Z,82.69
2022-09-17T08:06:26.870Z,82.42
2022-09-17T08:08:58.512Z,81.94
2022-09-17T08:11:54.562Z,81.20
2022-09-17T08:14:21.518Z,81.93
2022-09-17T08:16:49.865Z,81.86
2022-09-17T08:19:18.993Z,81.29
2022-09-17T08:21:46.088Z,81.82
2022-09-17T08:24:13.110Z,80.25
2022-09-17T08:26:41.160Z,81.37
2022-09-17T08:29:14.931Z,80.77
2022-09-17T08:31:42.223Z,81.22
2022-09-17T08:34:10.025Z,80.01
2022-09-17T08:36:40.376Z,80.53
2022-09-17T08:39:13.149Z,79.70
2022-09-17T08:41:53.046Z,78.74
2022-09-17T08:45:11.651Z,78.05
2022-09-17T08:47:45.664Z,79.44
2022-09-17T08:50:34.723Z,78.81
2022-09-17T08:53:50.063Z,75.61
2022-09-17T08:56:19.497Z,74.21
2022-09-17T08:59:35.835Z,74.54
2022-09-17T09:02:56.710Z,74.07
2022-09-17T09:05:41.917Z,73.16
2022-09-17T09:08:44.874Z,71.34
2022-09-17T09:11:18.283Z,71.68
2022-09-17T09:13:52.526Z,71.50
2022-09-17T09:16:26.146Z,71.03
2022-09-17T09:19:25.070Z,72.21
2022-09-17T09:22:40.578Z,71.14
2022-09-17T09:25:31.034Z,69.86
2022-09-17T09:28:48.993Z,70.29
2022-09-17T09:31:57.033Z,71.31
2022-09-17T09:34:29.639Z,71.10
2022-09-17T09:37:39.217Z,70.78
2022-09-17T09:41:13.227Z,68.88
2022-09-17T09:44:03.990Z,69.63
2022-09-17T09:47:03.958Z,67.32
2022-09-17T09:50:43.199Z,67.70
2022-09-17T09:53:47.970Z,66.91
2022-09-17T09:56:59.417Z,65.39
2022-09-17T09:59:27.097Z,64.00
2022-09-17T10:01:54.327Z,65.34
2022-09-17T10:04:28.394Z,66.20
2022-09-17T10:07:11.193Z,68.03
2022-09-17T10:09:45.302Z,68.20
2022-09-17T10:12:12.086Z,67.33
2022-09-17T10:14:46.232Z,69.04
2022-09-17T10:17:25.406Z,70.53
2022-09-17T10:20:12.043Z,70.97
2022-09-17T10:22:42.665Z,70.71
2022-09-17T10:25:32.120Z,72.17
2022-09-17T10:28:21.221Z,71.79
2022-09-17T10:31:10.128Z,68.17
2022-09-17T10:33:59.273Z,67.56
2022-09-17T10:36:45.758Z,65.65
2022-09-17T10:39:44.216Z,65.96
2022-09-17T10:42:17.837Z,64.10
2022-09-17T10:44:57.711Z,63.35
2022-09-17T10:47:42.605Z,66.04
2022-09-17T10:50:29.378Z,66.22
2022-09-17T10:53:02.017Z,67.25
2022-09-17T10:55:51.019Z,67.31
2022-09-17T10:59:16.456Z,68.75
2022-09-17T11:02:17.052Z,65.43
2022-09-17T11:05:31.359Z,64.72
2022-09-17T11:08:24.519Z,64.64
2022-09-17T11:11:09.069Z,65.83
2022-09-17T11:14:06.926Z,64.45
2022-09-17T11:16:51.783Z,66.69
2022-09-17T11:19:40.603Z,64.16
2022-09-17T11:22:28.722Z,65.44
2022-09-17T11:26:08.269Z,67.88
2022-09-17T11:28:58.380Z,68.02
2022-09-17T11:31:54.087Z,67.21
2022-09-17T11:34:37.697Z,66.58
2022-09-17T11:37:33.725Z,62.15
2022-09-17T11:40:15.683Z,62.46
2022-09-17T11:42:54.290Z,59.80
2022-09-17T11:45:38.313Z,60.44
2022-09-17T11:48:18.327Z,59.21
2022-09-17T11:51:19.569Z,62.43
2022-09-17T11:54:19.135Z,65.84
2022-09-17T11:57:06.476Z,63.63
2022-09-17T12:00:03.153Z,66.15
2022-09-17T12:03:19.036Z,65.24
2022-09-17T12:05:59.962Z,64.08
2022-09-17T12:09:01.704Z,61.94
2022-09-17T12:12:37.900Z,61.31
2022-09-17T12:15:17.888Z,61.56
2022-09-17T12:18:43.489Z,60.57
2022-09-17T12:21:15.159Z,61.65
2022-09-17T12:24:20.489Z,59.49
2022-09-17T12:27:58.221Z,55.95
2022-09-17T12:30:33.153Z,61.09
2022-09-17T12:33:50.092Z,59.57
2022-09-17T12:36:40.907Z,61.06
2022-09-17T12:39:58.953Z,65.77
2022-09-17T12:42:40.508Z,63.85
2022-09-17T12:45:31.581Z,61.74
2022-09-17T12:49:03.744Z,57.65
2022-09-17T12:52:12.030Z,55.55
2022-09-17T12:55:13.853Z,58.55
2022-09-17T12:58:14.053Z,59.25
2022-09-17T13:00:53.657Z,59.78
2022-09-17T13:03:32.822Z,57.72
2022-09-17T13:06:56.179Z,55.56
2022-09-17T13:10:15.470Z,52.28
2022-09-17T13:12:50.511Z,52.24
2022-09-17T13:16:05.034Z,55.53
2022-09-17T13:19:05.633Z,55.52
2022-09-17T13:21:55.684Z,54.54
2022-09-17T13:24:27.016Z,56.36
2022-09-17T13:26:55.179Z,54.65
2022-09-17T13:29:43.949Z,56.06
2022-09-17T13:32:33.632Z,54.81
2022-09-17T13:35:15.223Z,53.37
2022-09-17T13:38:03.491Z,52.42
2022-09-17T13:40:37.351Z,52.93
2022-09-17T13:43:04.189Z,51.34
2022-09-17T13:45:33.839Z,51.19
2022-09-17T13:48:11.408Z,47.46
2022-09-17T13:50:44.422Z,48.28
2022-09-17T13:53:14.437Z,45.05
2022-09-17T13:56:01.115Z,46.85
2022-09-17T13:58:36.517Z,47.23
2022-09-17T14:01:13.581Z,47.09
2022-09-17T14:03:46.572Z,45.72
2022-09-17T14:06:18.036Z,46.50
2022-09-17T14:08:45.045Z,45.74
2022-09-17T14:11:33.450Z,45.47
2022-09-17T14:14:06.394Z,47.04
2022-09-17T14:16:50.277Z,45.08
2022-09-17T14:19:29.452Z,46.10
2022-09-17T14:22:00.598Z,47.20
2022-09-17T14:24:52.389Z,46.59
2022-09-17T14:27:56.777Z,47.48
2022-09-17T14:30:32.817Z,50.59
2022-09-17T14:33:26.114Z,50.83
2022-09-17T14:36:08.124Z,50.36
2022-09-17T14:38:44.818Z,48.30
2022-09-17T14:41:11.719Z,46.89
2022-09-17T14:44:06.755Z,47.22
2022-09-17T14:46:49.919Z,48.31
2022-09-17T14:49:35.392Z,49.73
2022-09-17T14:52:19.850Z,48.90
2022-09-17T14:54:46.841Z,48.40
2022-09-17T14:57:29.305Z,49.98
2022-09-17T15:00:00.562Z,48.06
2022-09-17T15:02:43.158Z,49.00
2022-09-17T15:05:42.439Z,51.73
2022-09-17T15:08:22.173Z,50.54
2022-09-17T15:11:06.752Z,51.64
2022-09-17T15:13:51.047Z,51.37
2022-09-17T15:16:27.984Z,53.36
2022-09-17T15:18:58.690Z,54.46
2022-09-17T15:21:34.474Z,55.25
2022-09-17T15:24:41.832Z,53.81
2022-09-17T15:27:22.293Z,54.59
2022-09-17T15:29:57.730Z,54.40
2022-09-17T15:32:25.150Z,55.73
2022-09-17T15:35:30.645Z,56.00
2022-09-17T15:38:28.070Z,58.17
2022-09-17T15:40:55.668Z,56.75
2022-09-17T15:43:33.466Z,57.71
2022-09-17T15:46:32.566Z,59.13
2022-09-17T15:49:04.248Z,58.79
2022-09-17T15:51:37.320Z,61.26
2022-09-17T15:54:07.074Z,60.48
2022-09-17T15:56:40.207Z,59.69
2022-09-17T15:59:26.765Z,59.16
2022-09-17T16:01:57.322Z,58.37
2022-09-17T16:04:34.490Z,59.32
2022-09-17T16:07:07.801Z,60.50
2022-09-17T16:09:47.936Z,58.20
2022-09-17T16:12:26.054Z,59.56
2022-09-17T16:14:57.235Z,59.51
2022-09-17T16:17:33.236Z,59.60
2022-09-17T16:20:06.479Z,60.87
2022-09-17T16:22:33.611Z,59.90
2022-09-17T16:25:00.567Z,59.29
2022-09-17T16:27:33.012Z,60.96
2022-09-17T16:30:09.424Z,61.65
2022-09-17T16:32:36.376Z,61.73
2022-09-17T16:35:03.470Z,60.59
2022-09-17T16:37:30.471Z,60.37
2022-09-17T16:39:57.450Z,59.06
2022-09-17T16:42:24.456Z,60.67
2022-09-17T16:44:51.382Z,60.12
2022-09-17T16:47:18.465Z,61.42
2022-09-17T16:49:45.389Z,62.75
2022-09-17T16:52:12.338Z,61.83
2022-09-17T16:54:39.393Z,61.45
2022-09-17T16:57:06.325Z,61.30
2022-09-17T16:59:33.378Z,62.34
2022-09-17T17:02:00.589Z,61.75
2022-09-17T17:04:27.543Z,61.55
2022-09-17T17:06:54.484Z,62.05
2022-09-17T17:09:21.590Z,62.09
2022-09-17T17:11:48.548Z,64.45
2022-09-17T17:14:15.559Z,65.42
2022-09-17T17:16:43.584Z,64.23
2022-09-17T17:19:10.973Z,64.44
2022-09-17T17:21:38.113Z,63.79
2022-09-17T17:24:06.705Z,65.83
2022-09-17T17:26:34.576Z,65.95
2022-09-17T17:29:02.846Z,65.08
2022-09-17T17:31:33.131Z,65.21
2022-09-17T17:34:00.219Z,64.50
2022-09-17T17:36:27.939Z,66.19
2022-09-17T17:38:59.985Z,64.75
2022-09-17T17:41:28.570Z,65.73
2022-09-17T17:43:57.691Z,66.57
2022-09-17T17:46:25.129Z,66.45
2022-09-17T17:48:52.406Z,66.05
2022-09-17T17:51:19.523Z,66.82
2022-09-17T17:53:46.854Z,65.88
2022-09-17T17:56:14.165Z,66.76
2022-09-17T17:58:41.761Z,67.52
2022-09-17T18:01:22.315Z,68.44
2022-09-17T18:03:49.625Z,68.31
2022-09-17T18:06:16.832Z,69.03
2022-09-17T18:08:44.702Z,68.94
2022-09-17T18:11:12.372Z,67.05
2022-09-17T18:13:40.329Z,67.80
2022-09-17T18:16:11.789Z,68.53
2022-09-17T18:18:45.402Z,68.46
2022-09-17T18:21:22.782Z,67.86
2022-09-17T18:23:51.000Z,69.16
2022-09-17T18:26:25.488Z,69.63
2022-09-17T18:28:53.507Z,68.14
2022-09-17T18:31:28.257Z,67.39
2022-09-17T18:34:03.551Z,69.24
2022-09-17T18:36:34.085Z,70.33
2022-09-17T18:41:52.634Z,70.38
2022-09-17T18:44:21.672Z,71.49
2022-09-17T18:46:50.117Z,73.31
2022-09-17T18:49:17.418Z,73.95
2022-09-17T18:51:44.417Z,74.24
2022-09-17T18:54:14.841Z,73.66
2022-09-17T18:56:42.423Z,73.48
2022-09-17T18:59:10.828Z,73.92
2022-09-17T19:01:38.034Z,74.03
2022-09-17T19:04:07.478Z,74.14
2022-09-17T19:06:35.057Z,74.11
2022-09-17T19:09:04.698Z,73.72
2022-09-17T19:11:31.734Z,73.94
2022-09-17T19:13:58.923Z,73.71
2022-09-17T19:16:26.084Z,73.96
2022-09-17T19:18:53.141Z,75.45
2022-09-17T19:21:21.786Z,74.22
2022-09-17T19:23:51.909Z,74.62
2022-09-17T19:26:26.294Z,75.08
2022-09-17T19:28:57.712Z,75.83
2022-09-17T19:31:25.616Z,74.85
2022-09-17T19:33:52.875Z,74.20
2022-09-17T19:36:21.175Z,73.97
2022-09-17T19:38:48.936Z,73.24
2022-09-17T19:41:20.612Z,72.88
2022-09-17T19:43:50.278Z,73.28
2022-09-17T19:46:24.105Z,73.73
2022-09-17T19:48:55.860Z,74.80
2022-09-17T19:51:26.390Z,74.73
2022-09-17T19:53:53.482Z,74.94
2022-09-17T19:56:24.905Z,75.44
2022-09-17T19:58:52.495Z,76.30
2022-09-17T20:01:20.402Z,76.79
2022-09-17T20:03:47.809Z,77.29
2022-09-17T20:06:18.994Z,76.63
2022-09-17T20:08:51.087Z,77.16
2022-09-17T20:11:21.022Z,77.29
2022-09-17T20:13:48.407Z,77.92
2022-09-17T20:16:21.594Z,78.66
2022-09-17T20:18:50.270Z,79.82
2022-09-17T20:21:23.856Z,78.31
2022-09-17T20:23:51.139Z,79.12
2022-09-17T20:26:19.004Z,79.81
2022-09-17T20:28:48.038Z,79.30
2022-09-17T20:31:28.482Z,79.05
2022-09-17T20:34:02.357Z,78.90
2022-09-17T20:36:33.791Z,79.49
2022-09-17T20:39:21.946Z,79.82
2022-09-17T20:41:47.738Z,81.14
2022-09-17T20:44:14.705Z,81.32
2022-09-17T20:46:41.766Z,81.83
2022-09-17T20:49:08.922Z,83.09
2022-09-17T20:51:35.962Z,83.96
2022-09-17T20:54:03.354Z,83.37
2022-09-17T20:56:33.723Z,82.64
2022-09-17T20:59:17.679Z,83.56
2022-09-17T21:01:49.484Z,81.60
2022-09-17T21:04:22.012Z,82.31
2022-09-17T21:06:53.243Z,82.07
2022-09-17T21:09:20.899Z,81.67
2022-09-17T21:11:49.271Z,82.02
2022-09-17T21:14:18.121Z,81.55
2022-09-17T21:16:48.908Z,82.26
2022-09-17T21:19:16.582Z,82.93
2022-09-17T21:21:44.577Z,83.75
2022-09-17T21:24:12.488Z,83.25
2022-09-17T21:26:39.638Z,83.35
2022-09-17T21:29:06.660Z,82.57
2022-09-17T21:31:36.815Z,82.15
2022-09-17T21:34:09.530Z,81.95
2022-09-17T21:36:39.281Z,81.96
2022-09-17T21:39:14.463Z,81.77
2022-09-17T21:41:43.692Z,81.50
2022-09-17T21:44:12.784Z,82.93
2022-09-17T21:46:41.834Z,85.05
2022-09-17T21:49:09.597Z,84.13
2022-09-17T21:51:42.961Z,83.70
2022-09-17T21:54:16.717Z,83.25
2022-09-17T21:56:45.930Z,83.16
2022-09-17T21:59:15.846Z,84.15
2022-09-17T22:01:50.588Z,83.57
2022-09-17T22:04:22.071Z,82.89
2022-09-17T22:06:50.331Z,83.84
2022-09-17T22:09:24.693Z,83.54
2022-09-17T22:11:53.286Z,83.69
2022-09-17T22:14:24.141Z,83.85
2022-09-17T22:16:56.926Z,83.59
2022-09-17T22:19:25.530Z,83.91
2022-09-17T22:21:55.601Z,83.44
2022-09-17T22:24:24.155Z,83.07
2022-09-17T22:26:57.789Z,83.58
2022-09-17T22:29:29.068Z,84.09
2022-09-17T22:31:57.227Z,83.75
2022-09-17T22:34:25.777Z,83.72
2022-09-17T22:36:52.775Z,84.26
2022-09-17T22:39:23.084Z,83.43
2022-09-17T22:41:50.086Z,84.60
2022-09-17T22:44:19.826Z,85.68
2022-09-17T22:46:50.287Z,85.71
2022-09-17T22:49:18.896Z,84.97
2022-09-17T22:51:49.257Z,84.43
2022-09-17T22:54:18.275Z,84.32
2022-09-17T22:56:47.312Z,85.71
2022-09-17T22:59:14.425Z,86.49
2022-09-17T23:01:41.856Z,86.68
2022-09-17T23:04:09.694Z,86.48
2022-09-17T23:06:41.925Z,85.94
2022-09-17T23:09:11.111Z,85.87
2022-09-17T23:11:39.820Z,87.05
2022-09-17T23:14:11.920Z,87.06
2022-09-17T23:16:46.491Z,86.93
2022-09-17T23:19:19.910Z,86.77
2022-09-17T23:21:47.223Z,87.05
2022-09-17T23:24:21.657Z,87.22
2022-09-17T23:26:50.218Z,85.92
2022-09-17T23:29:17.818Z,85.75
2022-09-17T23:31:44.810Z,87.22
2022-09-17T23:34:11.926Z,87.78
2022-09-17T23:36:40.149Z,88.29
2022-09-17T23:39:11.562Z,87.97
2022-09-17T23:41:44.776Z,87.85
2022-09-17T23:44:15.778Z,88.06
2022-09-17T23:46:44.812Z,88.61
2022-09-17T23:49:13.807Z,88.75
2022-09-17T23:51:41.118Z,88.46
2022-09-17T23:54:08.296Z,87.72
2022-09-17T23:56:36.066Z,87.57
2022-09-17T23:59:07.219Z,87.46
